Time;durP1;ratioP1;P1;durP2;ratioP2;P2;SDS_P1;SDS_P2;PMS_P1;PMS_P2;Temp;Humidity;BMP_temperature;BMP_pressure;BME280_temperature;BME280_humidity;BME280_pressure;Samples;Min_cycle;Max_cycle;Signal;HPM_P1;HPM_P2
2021/03/11 00:00:58;;;;;;;25.45;14.45;;;7.80;99.90;;;;;;4157143;28;20362;-70
2021/03/11 00:02:59;;;;;;;24.67;14.25;;;7.80;99.90;;;;;;4158334;28;20080;-70
2021/03/11 00:05:00;;;;;;;24.42;14.23;;;7.90;99.90;;;;;;4157155;28;20018;-70
2021/03/11 00:07:01;;;;;;;24.27;14.73;;;7.90;99.90;;;;;;4152829;28;20044;-70
2021/03/11 00:09:01;;;;;;;28.38;15.75;;;7.80;99.90;;;;;;4161690;28;20473;-70
2021/03/11 00:11:03;;;;;;;26.33;14.35;;;7.90;99.90;;;;;;4158058;28;20448;-70
2021/03/11 00:13:04;;;;;;;27.58;14.50;;;7.80;99.90;;;;;;4160067;28;20731;-70
2021/03/11 00:15:11;;;;;;;25.40;14.35;;;7.70;99.90;;;;;;4156804;28;20025;-70
2021/03/11 00:17:11;;;;;;;23.27;13.15;;;7.70;99.90;;;;;;4159680;28;20374;-70
2021/03/11 00:19:12;;;;;;;22.08;12.80;;;7.80;99.90;;;;;;4138717;28;20029;-70
2021/03/11 00:21:12;;;;;;;25.40;14.18;;;7.70;99.90;;;;;;4153467;28;20057;-71
2021/03/11 00:23:13;;;;;;;19.85;12.65;;;7.70;99.90;;;;;;4152938;28;20100;-70
2021/03/11 00:25:16;;;;;;;19.48;11.63;;;7.80;99.90;;;;;;4159740;28;20029;-70
2021/03/11 00:27:17;;;;;;;23.77;12.57;;;7.80;99.90;;;;;;4157788;28;20057;-70
2021/03/11 00:29:18;;;;;;;20.88;11.80;;;7.80;99.90;;;;;;4153783;28;20091;-71
2021/03/11 00:31:18;;;;;;;19.80;12.35;;;7.80;99.90;;;;;;4157637;28;20159;-70
2021/03/11 00:33:19;;;;;;;22.25;12.75;;;7.80;99.90;;;;;;4155205;28;20037;-70
2021/03/11 00:35:21;;;;;;;23.48;11.98;;;7.80;99.90;;;;;;4155375;28;20033;-70
2021/03/11 00:37:22;;;;;;;19.05;11.82;;;7.80;99.90;;;;;;4159764;28;20040;-70
2021/03/11 00:39:22;;;;;;;19.25;11.95;;;7.80;99.90;;;;;;4157221;28;20029;-70
2021/03/11 00:41:23;;;;;;;21.48;11.85;;;7.80;99.90;;;;;;4159634;28;20037;-70
2021/03/11 00:43:24;;;;;;;21.40;12.13;;;7.80;99.90;;;;;;4157592;28;20084;-70
2021/03/11 00:45:24;;;;;;;17.52;11.43;;;7.90;99.90;;;;;;4156375;28;20136;-70
2021/03/11 00:47:25;;;;;;;21.38;12.90;;;7.90;99.90;;;;;;4159366;28;20120;-70
2021/03/11 00:49:25;;;;;;;18.63;11.85;;;7.90;99.90;;;;;;4154177;28;20057;-70
2021/03/11 00:51:26;;;;;;;20.83;11.45;;;7.90;99.90;;;;;;4159081;28;20041;-70
2021/03/11 00:53:27;;;;;;;18.58;11.70;;;7.90;99.90;;;;;;4156559;28;20033;-70
2021/03/11 00:55:28;;;;;;;17.15;11.10;;;8.00;99.90;;;;;;4150929;28;20110;-71
2021/03/11 00:57:29;;;;;;;23.05;12.50;;;8.00;99.90;;;;;;4156054;28;20413;-70
2021/03/11 00:59:30;;;;;;;19.10;11.27;;;8.00;99.90;;;;;;4155160;28;20037;-71
2021/03/11 01:01:30;;;;;;;19.05;12.10;;;8.00;99.90;;;;;;4158886;28;20040;-70
2021/03/11 01:03:31;;;;;;;19.20;11.00;;;8.00;99.90;;;;;;4159035;28;20559;-70
2021/03/11 01:05:33;;;;;;;21.48;10.52;;;8.00;99.90;;;;;;4157008;28;20041;-70
2021/03/11 01:07:37;;;;;;;20.42;11.60;;;8.10;99.90;;;;;;4155505;28;20041;-70
2021/03/11 01:09:38;;;;;;;18.48;11.07;;;8.10;99.90;;;;;;4154815;28;20060;-70
2021/03/11 01:11:38;;;;;;;16.88;10.68;;;8.10;99.90;;;;;;4159013;28;20045;-70
2021/03/11 01:13:39;;;;;;;16.65;10.73;;;8.10;99.90;;;;;;4154171;28;20068;-70
2021/03/11 01:15:41;;;;;;;18.75;11.10;;;8.20;99.90;;;;;;4158060;28;20044;-70
2021/03/11 01:17:42;;;;;;;16.90;9.20;;;8.20;99.90;;;;;;4159282;28;20385;-70
2021/03/11 01:19:43;;;;;;;17.33;9.80;;;8.20;99.90;;;;;;4152549;28;20081;-70
2021/03/11 01:21:43;;;;;;;15.63;9.43;;;8.20;99.90;;;;;;4138918;28;20034;-70
2021/03/11 01:23:44;;;;;;;18.50;10.25;;;8.30;99.90;;;;;;4153962;28;20069;-70
2021/03/11 01:25:44;;;;;;;16.15;9.00;;;8.30;99.90;;;;;;4157040;28;20658;-70
2021/03/11 01:27:45;;;;;;;20.20;11.15;;;8.30;99.90;;;;;;4153913;28;20401;-70
2021/03/11 01:29:48;;;;;;;;;;;8.20;99.90;;;;;;4148412;28;20116;-70
2021/03/11 01:31:48;;;;;;;16.17;9.35;;;8.30;99.90;;;;;;4155169;28;19912;-70
2021/03/11 01:33:49;;;;;;;16.05;9.38;;;8.30;99.90;;;;;;4158610;28;20035;-70
2021/03/11 01:35:49;;;;;;;16.23;9.50;;;8.30;99.90;;;;;;4157336;28;20068;-70
2021/03/11 01:37:50;;;;;;;15.73;8.68;;;8.30;99.90;;;;;;4156828;28;20041;-70
2021/03/11 01:39:51;;;;;;;15.90;9.38;;;8.30;99.90;;;;;;4157868;28;20041;-70
2021/03/11 01:41:51;;;;;;;14.68;9.38;;;8.30;99.90;;;;;;4156471;28;20045;-70
2021/03/11 01:43:56;;;;;;;13.40;8.35;;;8.30;99.90;;;;;;4158236;28;20095;-70
2021/03/11 01:45:56;;;;;;;14.30;8.65;;;8.30;99.90;;;;;;4156385;28;20048;-70
2021/03/11 01:47:57;;;;;;;13.52;8.57;;;8.30;99.90;;;;;;4156399;28;20025;-70
2021/03/11 01:49:58;;;;;;;13.80;8.32;;;8.40;99.90;;;;;;4156757;28;20665;-70
2021/03/11 01:52:00;;;;;;;13.40;8.32;;;8.40;99.90;;;;;;4158469;28;20619;-70
2021/03/11 01:54:01;;;;;;;12.35;7.75;;;8.30;99.90;;;;;;4157346;28;20041;-70
2021/03/11 01:56:02;;;;;;;13.32;7.68;;;8.40;99.90;;;;;;4157885;28;20034;-70
2021/03/11 01:58:03;;;;;;;13.15;7.85;;;8.40;99.90;;;;;;4156583;28;20405;-70
2021/03/11 02:00:07;;;;;;;12.68;7.85;;;8.40;99.90;;;;;;4158119;28;20030;-70
2021/03/11 02:02:08;;;;;;;12.38;7.72;;;8.40;99.90;;;;;;4152095;28;20064;-70
2021/03/11 02:04:09;;;;;;;13.15;8.25;;;8.40;99.90;;;;;;4158691;28;20061;-70
2021/03/11 02:06:10;;;;;;;15.35;9.18;;;8.50;99.90;;;;;;4152889;28;20044;-70
2021/03/11 02:08:11;;;;;;;14.23;8.38;;;8.40;99.90;;;;;;4158798;28;20050;-70
2021/03/11 02:10:24;;;;;;;13.27;7.68;;;8.50;99.90;;;;;;4153727;28;20034;-70
2021/03/11 02:13:15;;;;;;;13.47;7.60;;;8.50;99.90;;;;;;4153638;28;20061;-70
2021/03/11 02:15:28;;;;;;;13.02;7.20;;;8.50;99.90;;;;;;4124671;28;20044;-70
2021/03/11 02:18:07;;;;;;;13.23;7.97;;;8.50;99.90;;;;;;4156866;28;20129;-70
2021/03/11 02:20:28;;;;;;;14.63;7.70;;;8.50;99.90;;;;;;4150236;28;20072;-70
2021/03/11 02:23:07;;;;;;;13.90;7.82;;;8.50;99.90;;;;;;4156932;28;20033;-70
2021/03/11 02:25:18;;;;;;;11.05;7.18;;;8.50;99.90;;;;;;4150809;28;20406;-70
2021/03/11 02:27:25;;;;;;;10.35;6.60;;;8.60;99.90;;;;;;4150620;28;20033;-70
2021/03/11 02:29:28;;;;;;;9.60;6.53;;;8.60;99.90;;;;;;4154223;28;20548;-70
2021/03/11 02:31:32;;;;;;;10.75;6.13;;;8.60;99.90;;;;;;4155089;28;20037;-70
2021/03/11 02:33:36;;;;;;;9.65;6.07;;;8.60;99.90;;;;;;4155410;28;20132;-70
2021/03/11 02:35:39;;;;;;;9.70;5.95;;;8.60;99.90;;;;;;4153703;28;20041;-70
2021/03/11 02:37:43;;;;;;;7.78;5.72;;;8.70;99.90;;;;;;4154932;28;20032;-70
2021/03/11 02:39:50;;;;;;;11.88;6.50;;;8.60;99.90;;;;;;4153756;28;20034;-70
2021/03/11 02:41:53;;;;;;;10.07;6.20;;;8.70;99.90;;;;;;4150388;28;20025;-70
2021/03/11 02:43:54;;;;;;;8.18;5.88;;;8.70;99.90;;;;;;4157428;28;20025;-70
2021/03/11 02:45:56;;;;;;;9.13;5.40;;;8.70;99.90;;;;;;4154393;28;20029;-70
2021/03/11 02:48:01;;;;;;;8.10;5.00;;;8.70;99.90;;;;;;4156158;28;20039;-70
2021/03/11 02:50:04;;;;;;;9.75;5.43;;;8.80;99.90;;;;;;4152891;28;20037;-70
2021/03/11 02:52:05;;;;;;;;;;;8.70;99.90;;;;;;4150759;28;20361;-70
2021/03/11 02:54:06;;;;;;;8.88;5.13;;;8.80;99.90;;;;;;4165509;28;19916;-71
2021/03/11 02:56:08;;;;;;;7.05;5.05;;;8.80;99.90;;;;;;4159259;28;20071;-70
2021/03/11 02:58:11;;;;;;;6.53;4.68;;;8.80;99.90;;;;;;4157953;28;20152;-70
2021/03/11 03:00:12;;;;;;;7.53;5.15;;;8.80;99.90;;;;;;4153058;28;20117;-70
2021/03/11 03:02:15;;;;;;;7.05;4.63;;;8.80;99.90;;;;;;4151160;28;20680;-70
2021/03/11 03:04:16;;;;;;;8.27;5.25;;;8.80;99.90;;;;;;4153638;28;20046;-70
2021/03/11 03:06:18;;;;;;;6.90;4.60;;;8.90;99.90;;;;;;4156803;28;20485;-70
2021/03/11 03:08:19;;;;;;;5.88;4.38;;;8.80;99.90;;;;;;4142285;28;20433;-70
2021/03/11 03:10:27;;;;;;;7.15;4.40;;;8.80;99.90;;;;;;4151124;28;20029;-70
2021/03/11 03:12:28;;;;;;;5.53;4.20;;;8.90;99.90;;;;;;4159586;28;20544;-70
2021/03/11 03:14:29;;;;;;;5.82;4.57;;;8.80;99.90;;;;;;4159935;28;20084;-70
2021/03/11 03:16:30;;;;;;;7.55;4.28;;;8.90;99.90;;;;;;4158742;28;20105;-70
2021/03/11 03:18:32;;;;;;;8.45;4.47;;;8.90;99.90;;;;;;4160358;28;20042;-70
2021/03/11 03:20:33;;;;;;;5.82;3.85;;;8.80;99.90;;;;;;4155217;28;20120;-70
2021/03/11 03:22:36;;;;;;;6.60;4.50;;;8.90;99.90;;;;;;4150142;28;20351;-70
2021/03/11 03:24:38;;;;;;;6.50;4.50;;;8.90;99.90;;;;;;4155547;28;20464;-70
2021/03/11 03:26:40;;;;;;;6.55;3.92;;;8.80;99.90;;;;;;4159290;28;20087;-70
2021/03/11 03:28:45;;;;;;;6.10;4.20;;;8.90;99.90;;;;;;4152708;28;20090;-70
2021/03/11 03:30:46;;;;;;;6.15;4.30;;;8.90;99.90;;;;;;4128084;28;20572;-70
2021/03/11 03:32:47;;;;;;;7.20;4.22;;;8.90;99.90;;;;;;4155260;28;20037;-70
2021/03/11 03:34:47;;;;;;;5.72;3.92;;;8.90;99.90;;;;;;4148096;28;20034;-70
2021/03/11 03:36:48;;;;;;;5.90;4.20;;;8.90;99.90;;;;;;4150600;28;20437;-70
2021/03/11 03:38:48;;;;;;;7.13;4.43;;;8.90;99.90;;;;;;4153208;28;20041;-70
2021/03/11 03:40:49;;;;;;;5.97;4.18;;;8.90;99.90;;;;;;4160770;28;20135;-70
2021/03/11 03:43:04;;;;;;;5.93;4.10;;;8.90;99.90;;;;;;4159533;28;20054;-70
2021/03/11 03:45:10;;;;;;;6.65;4.63;;;8.90;99.90;;;;;;4154321;28;20037;-70
2021/03/11 03:47:12;;;;;;;9.23;4.28;;;8.90;99.90;;;;;;4159734;28;20057;-70
2021/03/11 03:49:14;;;;;;;6.20;4.40;;;8.90;99.90;;;;;;4154995;28;20040;-70
2021/03/11 03:51:22;;;;;;;7.60;4.75;;;8.90;99.90;;;;;;4160123;28;21028;-70
2021/03/11 03:53:27;;;;;;;6.75;4.15;;;8.90;99.90;;;;;;4127666;28;20057;-70
2021/03/11 03:55:29;;;;;;;6.78;4.50;;;9.00;99.90;;;;;;4159528;28;20372;-70
2021/03/11 03:57:31;;;;;;;6.50;4.30;;;8.90;99.90;;;;;;4160541;28;20041;-70
2021/03/11 03:59:35;;;;;;;7.28;4.38;;;8.90;99.90;;;;;;4160587;28;20264;-70
2021/03/11 04:01:38;;;;;;;9.18;4.30;;;8.90;99.90;;;;;;4140031;28;20067;-70
2021/03/11 04:03:39;;;;;;;7.50;4.53;;;8.90;99.90;;;;;;4159887;28;20029;-70
2021/03/11 04:05:42;;;;;;;6.05;4.55;;;8.90;99.90;;;;;;4151640;28;20081;-70
2021/03/11 04:07:46;;;;;;;7.20;4.63;;;8.90;99.90;;;;;;4160214;28;20037;-70
2021/03/11 04:09:47;;;;;;;6.35;4.57;;;8.90;99.90;;;;;;4159994;28;20413;-70
2021/03/11 04:11:49;;;;;;;6.78;4.80;;;8.90;99.90;;;;;;4157985;28;20060;-70
2021/03/11 04:14:03;;;;;;;6.63;4.85;;;8.90;99.90;;;;;;4150030;28;20049;-70
2021/03/11 04:16:10;;;;;;;8.48;5.45;;;8.90;99.90;;;;;;4153954;28;20528;-70
2021/03/11 04:18:12;;;;;;;6.80;5.05;;;8.90;99.90;;;;;;4154642;28;20042;-70
2021/03/11 04:20:13;;;;;;;7.53;5.25;;;8.90;99.90;;;;;;4152683;28;20056;-70
2021/03/11 04:22:14;;;;;;;7.30;4.97;;;8.90;99.90;;;;;;4141482;28;20034;-70
2021/03/11 04:24:15;;;;;;;8.40;4.93;;;9.00;99.90;;;;;;4160080;28;20026;-70
2021/03/11 04:26:16;;;;;;;8.15;4.97;;;9.00;99.90;;;;;;4156448;28;20250;-70
2021/03/11 04:28:17;;;;;;;9.57;5.97;;;9.00;99.90;;;;;;4146530;28;20052;-70
2021/03/11 04:30:19;;;;;;;7.10;4.75;;;9.00;99.90;;;;;;4159581;28;20033;-70
2021/03/11 04:32:22;;;;;;;7.50;5.15;;;9.10;99.90;;;;;;4154058;28;20033;-70
2021/03/11 04:34:23;;;;;;;11.60;6.18;;;9.00;99.90;;;;;;4160052;28;20116;-70
2021/03/11 04:36:24;;;;;;;8.70;5.50;;;9.10;99.90;;;;;;4153865;28;20042;-70
2021/03/11 04:38:26;;;;;;;8.53;5.33;;;9.10;99.90;;;;;;4152220;28;20547;-70
2021/03/11 04:40:26;;;;;;;8.13;5.00;;;9.20;99.90;;;;;;4159333;28;20044;-70
2021/03/11 04:42:27;;;;;;;9.27;5.38;;;9.20;99.90;;;;;;4159209;28;20041;-70
2021/03/11 04:44:28;;;;;;;6.70;4.70;;;9.20;99.90;;;;;;4158240;28;20041;-70
2021/03/11 04:46:31;;;;;;;8.27;5.65;;;9.20;99.90;;;;;;4157991;28;20045;-70
2021/03/11 04:48:33;;;;;;;9.77;5.93;;;9.30;99.90;;;;;;4147695;28;20138;-70
2021/03/11 04:50:37;;;;;;;10.80;5.85;;;9.20;99.90;;;;;;4150841;28;20048;-70
2021/03/11 04:52:39;;;;;;;6.63;4.75;;;9.30;99.90;;;;;;4153242;28;20375;-70
2021/03/11 04:54:40;;;;;;;9.75;5.43;;;9.30;99.90;;;;;;4158486;28;20038;-70
2021/03/11 04:56:41;;;;;;;9.00;6.05;;;9.30;99.90;;;;;;4157681;28;20041;-70
2021/03/11 04:58:42;;;;;;;8.68;5.68;;;9.30;99.90;;;;;;4160360;28;20517;-70
2021/03/11 05:00:47;;;;;;;7.78;5.70;;;9.30;99.90;;;;;;4159669;28;20045;-70
2021/03/11 05:02:49;;;;;;;7.43;5.13;;;9.40;99.90;;;;;;4154117;28;20029;-70
2021/03/11 05:04:49;;;;;;;7.55;5.10;;;9.30;99.90;;;;;;4147119;28;20084;-70
2021/03/11 05:06:50;;;;;;;8.77;6.00;;;9.40;99.90;;;;;;4150623;28;20033;-70
2021/03/11 05:08:51;;;;;;;6.97;5.60;;;9.30;99.90;;;;;;4159559;28;20484;-70
2021/03/11 05:10:51;;;;;;;9.88;6.05;;;9.30;99.90;;;;;;4159705;28;20045;-70
2021/03/11 05:12:52;;;;;;;9.98;5.22;;;9.30;99.90;;;;;;4137917;28;20036;-70
2021/03/11 05:14:52;;;;;;;8.93;5.60;;;9.30;99.90;;;;;;4153970;28;20048;-70
2021/03/11 05:16:53;;;;;;;7.43;5.22;;;9.30;99.90;;;;;;4156623;28;20088;-70
2021/03/11 05:18:54;;;;;;;9.02;5.70;;;9.30;99.90;;;;;;4151249;28;20043;-70
2021/03/11 05:20:54;;;;;;;9.98;6.63;;;9.30;99.90;;;;;;4152836;28;20036;-70
2021/03/11 05:22:55;;;;;;;8.32;5.82;;;9.30;99.90;;;;;;4159190;28;20038;-70
2021/03/11 05:24:56;;;;;;;8.00;5.38;;;9.20;99.90;;;;;;4152983;28;20529;-71
2021/03/11 05:26:56;;;;;;;12.65;6.47;;;9.30;99.90;;;;;;4156028;28;20032;-70
2021/03/11 05:28:57;;;;;;;8.07;5.43;;;9.20;99.90;;;;;;4159407;28;20026;-70
2021/03/11 05:30:58;;;;;;;9.55;5.30;;;9.20;99.90;;;;;;4156949;28;20046;-70
2021/03/11 05:32:59;;;;;;;10.20;5.32;;;9.30;99.90;;;;;;4158479;28;20382;-70
2021/03/11 05:34:59;;;;;;;8.20;5.40;;;9.30;99.90;;;;;;4157220;28;20560;-70
2021/03/11 05:37:01;;;;;;;8.60;5.38;;;9.30;99.90;;;;;;4153513;28;20418;-70
2021/03/11 05:39:04;;;;;;;8.20;5.10;;;9.30;99.90;;;;;;4158933;28;20109;-70
2021/03/11 05:41:05;;;;;;;8.55;5.10;;;9.30;99.90;;;;;;4157642;28;20038;-70
2021/03/11 05:43:07;;;;;;;8.77;5.57;;;9.30;99.90;;;;;;4159148;28;20662;-70
2021/03/11 05:45:09;;;;;;;10.13;5.60;;;9.30;99.90;;;;;;4151062;28;20509;-70
2021/03/11 05:47:11;;;;;;;7.00;4.93;;;9.30;99.90;;;;;;4148585;28;20037;-71
2021/03/11 05:49:14;;;;;;;6.78;5.07;;;9.30;99.90;;;;;;4154353;28;20046;-70
2021/03/11 05:51:15;;;;;;;;;;;9.40;99.90;;;;;;4152150;28;21010;-70
2021/03/11 05:53:16;;;;;;;8.05;5.53;;;9.40;99.90;;;;;;4158371;28;19916;-70
2021/03/11 05:55:18;;;;;;;6.95;4.93;;;9.40;99.90;;;;;;4151109;28;20042;-70
2021/03/11 05:57:20;;;;;;;10.82;5.93;;;9.40;99.90;;;;;;4159516;28;20155;-70
2021/03/11 05:59:22;;;;;;;7.82;5.20;;;9.40;99.90;;;;;;4155452;28;20041;-71
2021/03/11 06:01:25;;;;;;;8.60;5.50;;;9.40;99.90;;;;;;4158374;28;20029;-71
2021/03/11 06:03:31;;;;;;;7.50;5.40;;;9.40;99.90;;;;;;4155447;28;21012;-71
2021/03/11 06:05:32;;;;;;;8.85;5.60;;;9.40;99.90;;;;;;4147822;28;20038;-72
2021/03/11 06:07:33;;;;;;;8.77;5.53;;;9.40;99.90;;;;;;4151056;28;20045;-70
2021/03/11 06:09:36;;;;;;;8.02;5.40;;;9.40;99.90;;;;;;4151060;28;20037;-70
2021/03/11 06:11:39;;;;;;;9.43;5.80;;;9.50;99.90;;;;;;4157346;28;20042;-70
2021/03/11 06:13:40;;;;;;;9.52;5.40;;;9.50;99.90;;;;;;4157155;28;20620;-71
2021/03/11 06:15:42;;;;;;;6.75;4.53;;;9.50;99.90;;;;;;4150881;28;20038;-70
2021/03/11 06:17:43;;;;;;;7.50;4.85;;;9.50;99.90;;;;;;4145749;28;20045;-71
2021/03/11 06:19:44;;;;;;;7.25;5.00;;;9.60;99.90;;;;;;4157658;28;20432;-71
2021/03/11 06:21:45;;;;;;;7.93;5.47;;;9.60;99.90;;;;;;4153545;28;20041;-70
2021/03/11 06:23:46;;;;;;;8.43;5.65;;;9.50;99.90;;;;;;4142319;28;20046;-70
2021/03/11 06:25:50;;;;;;;7.07;4.90;;;9.60;99.90;;;;;;4147282;28;20034;-70
2021/03/11 06:27:51;;;;;;;9.07;5.45;;;9.60;99.90;;;;;;4157636;28;20438;-71
2021/03/11 06:29:55;;;;;;;7.38;4.90;;;9.60;99.90;;;;;;4153813;28;20037;-69
2021/03/11 06:31:58;;;;;;;6.88;4.85;;;9.60;99.90;;;;;;4152838;28;20033;-71
2021/03/11 06:34:01;;;;;;;6.47;4.95;;;9.60;99.90;;;;;;4156807;28;20551;-75
2021/03/11 06:36:21;;;;;;;;;;;9.70;99.90;;;;;;4156284;28;20106;-70
2021/03/11 06:38:41;;;;;;;6.93;5.10;;;9.70;99.90;;;;;;4144890;28;19913;-70
2021/03/11 06:40:54;;;;;;;8.07;5.03;;;9.80;99.90;;;;;;4154565;28;20030;-70
2021/03/11 06:43:13;;;;;;;8.15;5.13;;;9.70;99.90;;;;;;4150854;28;20141;-70
2021/03/11 06:45:20;;;;;;;7.57;5.15;;;9.80;99.90;;;;;;4165361;28;20041;-70
2021/03/11 06:47:25;;;;;;;7.05;4.75;;;9.80;99.90;;;;;;4151706;28;20521;-70
2021/03/11 06:49:27;;;;;;;10.55;5.45;;;9.80;99.90;;;;;;4153061;28;20059;-70
2021/03/11 06:51:27;;;;;;;5.85;4.18;;;9.90;99.90;;;;;;4159567;28;20029;-70
2021/03/11 06:53:29;;;;;;;6.72;4.47;;;9.90;99.90;;;;;;4158386;28;20037;-70
2021/03/11 06:55:31;;;;;;;6.78;4.40;;;9.90;99.90;;;;;;4148053;28;20042;-70
2021/03/11 06:57:35;;;;;;;7.80;5.00;;;9.90;99.90;;;;;;4146405;28;20026;-70
2021/03/11 06:59:36;;;;;;;7.75;4.95;;;10.00;99.90;;;;;;4158394;28;20524;-70
2021/03/11 07:01:49;;;;;;;8.32;5.07;;;9.90;99.90;;;;;;4159797;28;20026;-70
2021/03/11 07:03:50;;;;;;;7.53;5.15;;;9.90;99.90;;;;;;4155444;28;20088;-70
2021/03/11 07:05:51;;;;;;;7.63;4.80;;;9.90;99.90;;;;;;4152903;28;20497;-70
2021/03/11 07:08:11;;;;;;;8.00;4.93;;;9.80;99.90;;;;;;4147349;28;20177;-70
2021/03/11 07:10:26;;;;;;;7.13;4.88;;;9.80;99.90;;;;;;4160241;28;20029;-70
2021/03/11 07:12:53;;;;;;;8.55;5.40;;;9.80;99.90;;;;;;4181826;28;20036;-70
2021/03/11 07:14:54;;;;;;;9.23;5.38;;;9.80;99.90;;;;;;4150066;28;20110;-70
2021/03/11 07:16:54;;;;;;;8.75;5.40;;;9.80;99.90;;;;;;4152650;28;20053;-69
2021/03/11 07:19:14;;;;;;;8.07;4.93;;;9.80;99.90;;;;;;4157529;28;20049;-70
2021/03/11 07:21:42;;;;;;;5.90;4.80;;;9.80;99.90;;;;;;4157672;28;20482;-70
2021/03/11 07:23:48;;;;;;;6.25;4.65;;;9.80;99.90;;;;;;4152026;28;20481;-69
2021/03/11 07:25:49;;;;;;;7.45;5.18;;;9.80;99.90;;;;;;4157921;28;20038;-69
2021/03/11 07:27:50;;;;;;;7.05;4.65;;;9.80;99.90;;;;;;4159826;28;20033;-69
2021/03/11 07:30:03;;;;;;;7.07;4.78;;;9.80;99.90;;;;;;4158988;28;20033;-69
2021/03/11 07:32:05;;;;;;;7.60;4.65;;;9.80;99.90;;;;;;4158632;28;20040;-69
2021/03/11 07:34:05;;;;;;;7.30;4.93;;;9.90;99.90;;;;;;4154377;28;20037;-69
2021/03/11 07:36:08;;;;;;;6.72;4.70;;;9.90;99.90;;;;;;4157697;28;20124;-69
2021/03/11 07:38:14;;;;;;;9.23;5.20;;;9.90;99.90;;;;;;4157871;28;20117;-70
2021/03/11 07:40:16;;;;;;;9.77;5.18;;;9.90;99.90;;;;;;4160448;28;20079;-69
2021/03/11 07:42:17;;;;;;;10.60;5.30;;;10.00;99.90;;;;;;4160472;28;20600;-69
2021/03/11 07:44:18;;;;;;;7.10;4.93;;;10.00;99.90;;;;;;4159670;28;20042;-70
2021/03/11 07:46:18;;;;;;;8.48;5.50;;;10.10;99.90;;;;;;4157601;28;20037;-69
2021/03/11 07:48:20;;;;;;;7.30;4.97;;;10.10;99.90;;;;;;4157751;28;20042;-69
2021/03/11 07:50:21;;;;;;;7.32;4.93;;;10.20;99.90;;;;;;4158147;28;20126;-69
2021/03/11 07:52:21;;;;;;;7.65;4.82;;;10.30;99.90;;;;;;4157871;28;20049;-69
2021/03/11 07:54:23;;;;;;;8.75;4.72;;;10.40;99.90;;;;;;4155785;28;20105;-70
2021/03/11 07:56:24;;;;;;;9.43;4.65;;;10.50;99.90;;;;;;4155020;28;20041;-69
2021/03/11 07:58:25;;;;;;;7.55;4.90;;;10.50;99.90;;;;;;4153016;28;20045;-69
2021/03/11 08:00:27;;;;;;;8.60;5.18;;;10.50;99.90;;;;;;4158157;28;20090;-70
2021/03/11 08:02:30;;;;;;;7.23;4.93;;;10.60;99.90;;;;;;4157625;28;20046;-69
2021/03/11 08:04:34;;;;;;;6.65;4.43;;;10.60;99.90;;;;;;4151575;28;20518;-70
2021/03/11 08:06:37;;;;;;;8.57;4.50;;;10.70;99.90;;;;;;4148411;28;20038;-70
2021/03/11 08:08:42;;;;;;;9.27;4.53;;;10.70;99.90;;;;;;4153243;28;20025;-70
2021/03/11 08:10:56;;;;;;;5.43;4.05;;;10.80;99.90;;;;;;4154136;28;20121;-69
2021/03/11 08:12:57;;;;;;;8.00;4.57;;;10.80;99.90;;;;;;4156664;28;20079;-69
2021/03/11 08:15:04;;;;;;;9.75;4.88;;;10.90;99.90;;;;;;4157328;28;20037;-69
2021/03/11 08:17:33;;;;;;;8.23;4.53;;;10.90;99.90;;;;;;4159956;28;20167;-69
2021/03/11 08:19:37;;;;;;;8.40;3.83;;;10.90;99.90;;;;;;4154136;28;20497;-69
2021/03/11 08:21:43;;;;;;;7.60;4.15;;;11.00;99.90;;;;;;4146752;28;20025;-69
2021/03/11 08:23:44;;;;;;;7.40;3.38;;;10.90;99.90;;;;;;4148528;28;20038;-69
2021/03/11 08:25:46;;;;;;;7.35;3.67;;;10.90;99.90;;;;;;4151808;28;20041;-69
2021/03/11 08:27:46;;;;;;;6.05;3.40;;;10.90;99.90;;;;;;4154135;28;20084;-69
2021/03/11 08:29:47;;;;;;;6.38;3.40;;;10.90;99.90;;;;;;4151865;28;20038;-69
2021/03/11 08:31:49;;;;;;;8.60;3.83;;;10.90;99.90;;;;;;4157920;28;20112;-69
2021/03/11 08:33:50;;;;;;;7.60;4.00;;;10.90;99.90;;;;;;4149297;28;20041;-69
2021/03/11 08:35:52;;;;;;;7.22;3.88;;;11.00;99.90;;;;;;4153456;28;20131;-69
2021/03/11 08:37:59;;;;;;;8.88;4.78;;;11.00;99.90;;;;;;4158973;28;20444;-69
2021/03/11 08:40:00;;;;;;;7.85;4.22;;;11.00;99.90;;;;;;4151168;28;20038;-69
2021/03/11 08:42:39;;;;;;;5.38;3.83;;;11.10;99.90;;;;;;4156451;28;20091;-69
2021/03/11 08:44:44;;;;;;;10.48;4.63;;;11.10;99.90;;;;;;4157908;28;20045;-69
2021/03/11 08:46:51;;;;;;;11.45;4.18;;;11.10;99.90;;;;;;4140108;28;20042;-70
2021/03/11 08:49:00;;;;;;;10.02;4.65;;;11.20;99.90;;;;;;4158861;28;20033;-69
2021/03/11 08:51:01;;;;;;;7.28;3.83;;;11.20;99.90;;;;;;4157775;28;20026;-69
2021/03/11 08:53:02;;;;;;;8.45;3.88;;;11.30;99.90;;;;;;4157351;28;20467;-69
2021/03/11 08:55:34;;;;;;;8.50;3.78;;;11.30;99.90;;;;;;4155208;28;20084;-69
2021/03/11 08:57:43;;;;;;;6.78;3.80;;;11.40;99.90;;;;;;4157294;28;20045;-69
2021/03/11 08:59:47;;;;;;;7.47;3.50;;;11.40;99.90;;;;;;4150518;28;20041;-69
2021/03/11 09:01:52;;;;;;;6.40;2.88;;;11.50;99.90;;;;;;4148858;28;20705;-69
2021/03/11 09:03:53;;;;;;;8.93;3.45;;;11.40;99.90;;;;;;4152164;28;20612;-69
2021/03/11 09:05:54;;;;;;;9.95;3.03;;;11.40;99.90;;;;;;4150056;28;20103;-69
2021/03/11 09:08:11;;;;;;;7.68;2.72;;;11.30;99.90;;;;;;4153192;28;20417;-70
2021/03/11 09:10:19;;;;;;;7.97;2.70;;;11.30;99.90;;;;;;4149815;28;20184;-69
2021/03/11 09:12:29;;;;;;;14.10;2.65;;;11.30;99.90;;;;;;4153340;28;20033;-69
2021/03/11 09:14:31;;;;;;;5.53;2.13;;;11.30;99.90;;;;;;4152006;28;20064;-69
2021/03/11 09:16:31;;;;;;;8.80;2.85;;;11.30;99.90;;;;;;4158867;28;20129;-69
2021/03/11 09:18:32;;;;;;;6.38;2.40;;;11.30;99.90;;;;;;4153854;28;20497;-69
2021/03/11 09:20:33;;;;;;;6.70;2.40;;;11.50;99.90;;;;;;4150817;28;20048;-69
2021/03/11 09:22:36;;;;;;;6.10;2.45;;;11.60;99.90;;;;;;4157013;28;20049;-69
2021/03/11 09:24:36;;;;;;;7.57;2.40;;;11.60;99.90;;;;;;4157269;28;20509;-69
2021/03/11 09:26:37;;;;;;;9.23;2.42;;;11.60;99.90;;;;;;4155092;28;20040;-69
2021/03/11 09:28:38;;;;;;;6.93;2.50;;;11.60;99.90;;;;;;4146425;28;20041;-69
2021/03/11 09:30:43;;;;;;;8.18;2.92;;;11.70;99.90;;;;;;4147788;28;20037;-69
2021/03/11 09:32:44;;;;;;;10.52;2.50;;;11.80;99.90;;;;;;4148762;28;20025;-69
2021/03/11 09:35:08;;;;;;;13.75;3.08;;;11.80;99.90;;;;;;4153834;28;20092;-69
2021/03/11 09:37:09;;;;;;;14.35;3.17;;;12.00;99.90;;;;;;4157874;28;20045;-68
2021/03/11 09:39:10;;;;;;;11.13;2.78;;;12.20;99.90;;;;;;4157486;28;20037;-68
2021/03/11 09:41:11;;;;;;;13.27;3.00;;;12.30;99.90;;;;;;4154161;28;20041;-69
2021/03/11 09:43:35;;;;;;;19.52;3.17;;;12.40;99.90;;;;;;4157747;28;20030;-69
2021/03/11 09:46:02;;;;;;;;;;;12.60;99.90;;;;;;4157339;28;20026;-68
2021/03/11 09:48:05;;;;;;;13.70;3.45;;;12.70;99.90;;;;;;4149945;28;20031;-69
2021/03/11 09:50:10;;;;;;;16.13;3.35;;;12.90;99.90;;;;;;4148511;28;20432;-69
2021/03/11 09:52:13;;;;;;;16.67;3.47;;;13.00;99.90;;;;;;4135521;28;20034;-69
2021/03/11 09:54:15;;;;;;;16.10;3.95;;;13.10;99.90;;;;;;4148994;28;20030;-69
2021/03/11 09:56:16;;;;;;;20.93;4.17;;;13.20;99.90;;;;;;4157908;28;20046;-69
2021/03/11 09:58:19;;;;;;;24.38;4.70;;;13.20;99.90;;;;;;4156968;28;20099;-69
2021/03/11 10:00:20;;;;;;;20.67;4.18;;;13.40;99.90;;;;;;4153648;28;20129;-69
2021/03/11 10:02:21;;;;;;;17.90;3.90;;;13.50;99.90;;;;;;4151368;28;20116;-69
2021/03/11 10:04:29;;;;;;;17.17;4.22;;;13.50;99.90;;;;;;4152802;28;20065;-69
2021/03/11 10:06:32;;;;;;;20.38;4.70;;;13.60;99.90;;;;;;4156108;28;20073;-68
2021/03/11 10:08:40;;;;;;;16.17;3.72;;;13.60;99.90;;;;;;4158079;28;20452;-69
2021/03/11 10:10:56;;;;;;;18.95;4.25;;;13.70;99.90;;;;;;4157449;28;20661;-69
2021/03/11 10:12:57;;;;;;;13.15;3.83;;;13.80;99.90;;;;;;4157055;28;20029;-69
2021/03/11 10:15:10;;;;;;;18.95;4.38;;;13.80;99.90;;;;;;4157980;28;20057;-68
2021/03/11 10:17:18;;;;;;;18.05;3.75;;;13.80;99.90;;;;;;4159909;28;20527;-68
2021/03/11 10:19:21;;;;;;;19.65;3.88;;;13.90;99.90;;;;;;4160464;28;20030;-69
2021/03/11 10:21:22;;;;;;;18.70;3.80;;;14.00;99.90;;;;;;4155331;28;20026;-69
2021/03/11 10:23:22;;;;;;;20.13;4.20;;;14.00;99.90;;;;;;4155142;28;20041;-69
2021/03/11 10:25:23;;;;;;;16.05;3.95;;;14.00;99.90;;;;;;4155986;28;20033;-69
2021/03/11 10:27:27;;;;;;;21.13;3.80;;;14.10;99.90;;;;;;4150948;28;20033;-69
2021/03/11 10:29:31;;;;;;;9.98;3.05;;;14.10;99.90;;;;;;4157441;28;20050;-69
2021/03/11 10:31:32;;;;;;;12.00;3.30;;;14.20;99.90;;;;;;4158801;28;20038;-69
2021/03/11 10:33:34;;;;;;;12.13;3.50;;;14.30;99.90;;;;;;4159435;28;22244;-69
2021/03/11 10:35:37;;;;;;;10.50;3.08;;;14.30;99.90;;;;;;4153509;28;20049;-69
2021/03/11 10:37:40;;;;;;;15.02;3.00;;;14.30;99.90;;;;;;4156946;28;20053;-69
2021/03/11 10:39:50;;;;;;;;;;;14.30;99.90;;;;;;4158670;28;20199;-69
2021/03/11 10:41:59;;;;;;;18.05;3.47;;;14.30;99.90;;;;;;4135988;28;19916;-69
2021/03/11 10:44:05;;;;;;;13.93;3.08;;;14.30;99.90;;;;;;4153319;28;20428;-69
2021/03/11 10:46:07;;;;;;;12.65;3.03;;;14.20;99.90;;;;;;4151950;28;20037;-69
2021/03/11 10:48:08;;;;;;;12.80;3.08;;;14.20;99.90;;;;;;4149248;28;20042;-69